createdAt,value
2016-07-05T00:00:28.557Z,14.87
2016-07-05T00:01:28.786Z,14.85
2016-07-05T00:02:28.739Z,14.86
2016-07-05T00:03:28.761Z,14.85
2016-07-05T00:04:28.536Z,14.86
2016-07-05T00:05:28.852Z,14.85
2016-07-05T00:06:28.767Z,14.83
2016-07-05T00:07:28.554Z,14.8
2016-07-05T00:08:28.749Z,14.86
2016-07-05T00:09:28.549Z,14.82
2016-07-05T00:10:28.750Z,14.86
2016-07-05T00:11:28.546Z,14.86
2016-07-05T00:12:28.556Z,14.9
2016-07-05T00:13:28.827Z,14.97
2016-07-05T00:14:28.545Z,14.86
2016-07-05T00:15:28.547Z,14.94
2016-07-05T00:16:28.570Z,14.94
2016-07-05T00:17:28.879Z,14.98
2016-07-05T00:18:28.697Z,14.98
2016-07-05T00:19:28.855Z,15.05
2016-07-05T00:20:28.974Z,15
2016-07-05T00:21:28.636Z,14.98
2016-07-05T00:22:28.636Z,15.02
2016-07-05T00:23:28.928Z,15.08
2016-07-05T00:24:28.648Z,15.04
2016-07-05T00:25:28.634Z,15.04
2016-07-05T00:26:28.632Z,15.04
2016-07-05T00:27:29.035Z,15.05
2016-07-05T00:28:28.718Z,15.04
2016-07-05T00:29:28.911Z,15.08
2016-07-05T00:30:28.642Z,15.04
2016-07-05T00:31:28.905Z,14.98
2016-07-05T00:32:28.783Z,15.01
2016-07-05T00:33:28.858Z,15.04
2016-07-05T00:34:28.960Z,15.01
2016-07-05T00:35:28.804Z,15
2016-07-05T00:36:28.734Z,15.01
2016-07-05T00:37:28.934Z,15.01
2016-07-05T00:38:28.987Z,14.98
2016-07-05T00:39:28.744Z,15
2016-07-05T00:40:28.758Z,14.98
2016-07-05T00:41:28.898Z,15.01
2016-07-05T00:42:28.786Z,14.94
2016-07-05T00:43:28.773Z,14.93
2016-07-05T00:44:28.790Z,15
2016-07-05T00:45:28.800Z,14.9
2016-07-05T00:46:28.790Z,14.95
2016-07-05T00:47:28.855Z,14.94
2016-07-05T00:48:28.830Z,14.9
2016-07-05T00:49:28.763Z,14.94
2016-07-05T00:50:28.763Z,14.9
2016-07-05T00:51:28.956Z,14.93
2016-07-05T00:52:28.936Z,14.94
2016-07-05T00:53:28.938Z,14.86
2016-07-05T00:54:28.915Z,14.98
2016-07-05T00:55:28.753Z,14.89
2016-07-05T00:56:28.740Z,14.86
2016-07-05T00:57:28.920Z,14.86
2016-07-05T00:58:28.999Z,14.95
2016-07-05T00:59:28.972Z,14.89
2016-07-05T01:00:28.915Z,14.95
2016-07-05T01:01:29.025Z,14.94
2016-07-05T01:02:28.975Z,14.89
2016-07-05T01:03:28.723Z,14.86
2016-07-05T01:04:28.895Z,14.95
2016-07-05T01:05:28.914Z,14.89
2016-07-05T01:06:28.710Z,14.94
2016-07-05T01:07:28.679Z,14.9
2016-07-05T01:08:28.958Z,14.94
2016-07-05T01:09:28.701Z,14.89
2016-07-05T01:10:28.938Z,14.94
2016-07-05T01:11:28.987Z,14.97
2016-07-05T01:12:28.781Z,14.87
2016-07-05T01:13:28.913Z,14.9
2016-07-05T01:14:28.758Z,14.98
2016-07-05T01:15:28.640Z,14.94
2016-07-05T01:16:28.651Z,14.98
2016-07-05T01:17:28.660Z,14.97
2016-07-05T01:18:28.928Z,15.01
2016-07-05T01:19:28.840Z,15.05
2016-07-05T01:20:28.938Z,15.02
2016-07-05T01:21:28.647Z,15.02
2016-07-05T01:22:28.755Z,15.04
2016-07-05T01:23:28.824Z,15
2016-07-05T01:24:28.883Z,15.01
2016-07-05T01:25:28.736Z,15.05
2016-07-05T01:26:28.625Z,15.04
2016-07-05T01:27:28.596Z,15.1
2016-07-05T01:28:28.695Z,14.98
2016-07-05T01:29:28.805Z,15.01
2016-07-05T01:30:28.903Z,15.04
2016-07-05T01:31:28.780Z,15.07
2016-07-05T01:32:28.707Z,15.05
2016-07-05T01:33:28.590Z,15.1
2016-07-05T01:34:28.809Z,15
2016-07-05T01:35:28.773Z,15.07
2016-07-05T01:36:28.576Z,15.08
2016-07-05T01:37:28.769Z,15.12
2016-07-05T01:38:28.573Z,15.18
2016-07-05T01:39:28.575Z,15.12
2016-07-05T01:40:28.769Z,15.13
2016-07-05T01:41:28.795Z,15.2
2016-07-05T01:42:28.827Z,15.16
2016-07-05T01:43:28.756Z,15.19
2016-07-05T01:44:28.822Z,15.22
2016-07-05T01:45:28.549Z,15.26
2016-07-05T01:46:28.567Z,15.25
2016-07-05T01:47:28.551Z,15.25
2016-07-05T01:48:28.842Z,15.31
2016-07-05T01:49:28.761Z,15.33
2016-07-05T01:50:28.556Z,15.37
2016-07-05T01:51:28.530Z,15.35
2016-07-05T01:52:28.532Z,15.4
2016-07-05T01:53:28.594Z,15.33
2016-07-05T01:54:28.816Z,15.31
2016-07-05T01:55:28.767Z,15.31
2016-07-05T01:56:28.511Z,15.33
2016-07-05T01:57:28.498Z,15.31
2016-07-05T01:58:28.556Z,15.44
2016-07-05T01:59:28.689Z,15.37
2016-07-05T02:00:28.503Z,15.37
2016-07-05T02:01:28.808Z,15.37
2016-07-05T02:02:28.668Z,15.41
2016-07-05T02:03:29.276Z,15.35
2016-07-05T02:04:28.617Z,15.43
2016-07-05T02:05:28.749Z,15.37
2016-07-05T02:06:28.480Z,15.35
2016-07-05T02:07:28.740Z,15.35
2016-07-05T02:08:28.892Z,15.37
2016-07-05T02:09:28.692Z,15.37
2016-07-05T02:10:28.738Z,15.35
2016-07-05T02:11:28.706Z,15.41
2016-07-05T02:12:28.461Z,15.34
2016-07-05T02:13:28.465Z,15.38
2016-07-05T02:14:28.568Z,15.44
2016-07-05T02:15:28.709Z,15.4
2016-07-05T02:16:28.431Z,15.43
2016-07-05T02:17:29.428Z,15.41
2016-07-05T02:18:28.665Z,15.41
2016-07-05T02:19:28.450Z,15.41
2016-07-05T02:20:28.703Z,15.44
2016-07-05T02:21:28.427Z,15.38
2016-07-05T02:22:28.678Z,15.44
2016-07-05T02:23:28.393Z,15.43
2016-07-05T02:24:28.603Z,15.41
2016-07-05T02:25:28.604Z,15.44
2016-07-05T02:26:28.415Z,15.38
2016-07-05T02:27:28.585Z,15.38
2016-07-05T02:28:28.397Z,15.4
2016-07-05T02:29:28.509Z,15.41
2016-07-05T02:30:28.660Z,15.43
2016-07-05T02:31:28.379Z,15.47
2016-07-05T02:32:28.567Z,15.41
2016-07-05T02:33:28.651Z,15.43
2016-07-05T02:34:28.370Z,15.44
2016-07-05T02:35:28.368Z,15.41
2016-07-05T02:36:28.560Z,15.4
2016-07-05T02:37:28.366Z,15.45
2016-07-05T02:38:28.543Z,15.38
2016-07-05T02:39:28.547Z,15.38
2016-07-05T02:40:28.576Z,15.41
2016-07-05T02:41:28.473Z,15.44
2016-07-05T02:42:28.355Z,15.47
2016-07-05T02:43:28.597Z,15.44
2016-07-05T02:44:28.337Z,15.45
2016-07-05T02:45:28.614Z,15.37
2016-07-05T02:46:28.411Z,15.41
2016-07-05T02:47:28.512Z,15.37
2016-07-05T02:48:28.519Z,15.44
2016-07-05T02:49:28.558Z,15.41
2016-07-05T02:50:28.421Z,15.43
2016-07-05T02:51:28.632Z,15.41
2016-07-05T02:52:28.324Z,15.44
2016-07-05T02:53:28.598Z,15.38
2016-07-05T02:54:28.566Z,15.4
2016-07-05T02:55:28.317Z,15.43
2016-07-05T02:56:28.311Z,15.44
2016-07-05T02:57:28.312Z,15.43
2016-07-05T02:58:28.406Z,15.38
2016-07-05T02:59:28.510Z,15.44
2016-07-05T03:00:28.548Z,15.43
2016-07-05T03:01:28.344Z,15.43
2016-07-05T03:02:28.276Z,15.4
2016-07-05T03:03:28.544Z,15.44
2016-07-05T03:04:28.534Z,15.44
2016-07-05T03:05:28.277Z,15.41
2016-07-05T03:06:28.285Z,15.44
2016-07-05T03:07:28.364Z,15.44
2016-07-05T03:08:28.527Z,15.41
2016-07-05T03:09:28.436Z,15.4
2016-07-05T03:10:28.471Z,15.38
2016-07-05T03:11:28.515Z,15.41
2016-07-05T03:12:28.260Z,15.37
2016-07-05T03:13:28.348Z,15.43
2016-07-05T03:14:28.514Z,15.37
2016-07-05T03:15:29.942Z,15.27
2016-07-05T03:16:28.346Z,15.3
2016-07-05T03:17:28.432Z,15.27
2016-07-05T03:18:28.608Z,15.33
2016-07-05T03:19:28.444Z,15.27
2016-07-05T03:20:28.223Z,15.3
2016-07-05T03:21:28.255Z,15.38
2016-07-05T03:22:28.249Z,15.35
2016-07-05T03:23:28.209Z,15.4
2016-07-05T03:24:28.497Z,15.49
2016-07-05T03:25:28.213Z,15.35
2016-07-05T03:26:28.511Z,15.45
2016-07-05T03:27:28.188Z,15.41
2016-07-05T03:28:28.223Z,15.41
2016-07-05T03:29:28.457Z,15.41
2016-07-05T03:30:28.220Z,15.38
2016-07-05T03:31:28.513Z,15.43
2016-07-05T03:32:28.199Z,15.45
2016-07-05T03:33:28.211Z,15.45
2016-07-05T03:34:28.190Z,15.45
2016-07-05T03:35:28.366Z,15.44
2016-07-05T03:36:28.166Z,15.38
2016-07-05T03:37:28.175Z,15.43
2016-07-05T03:38:28.173Z,15.41
2016-07-05T03:39:28.172Z,15.45
2016-07-05T03:40:28.404Z,15.41
2016-07-05T03:41:28.146Z,15.41
2016-07-05T03:42:28.142Z,15.41
2016-07-05T03:43:28.135Z,15.44
2016-07-05T03:44:28.145Z,15.52
2016-07-05T03:45:28.152Z,15.38
2016-07-05T03:46:28.264Z,15.44
2016-07-05T03:47:28.358Z,15.47
2016-07-05T03:48:28.134Z,15.45
2016-07-05T03:49:28.236Z,15.53
2016-07-05T03:50:28.609Z,15.51
2016-07-05T03:51:28.269Z,15.47
2016-07-05T03:52:28.103Z,15.51
2016-07-05T03:53:28.107Z,15.59
2016-07-05T03:54:28.384Z,15.53
2016-07-05T03:55:28.404Z,15.58
2016-07-05T03:56:28.449Z,15.56
2016-07-05T03:57:28.117Z,15.7
2016-07-05T03:58:28.122Z,15.6
2016-07-05T03:59:28.384Z,15.7
2016-07-05T04:00:28.136Z,15.71
2016-07-05T04:01:28.121Z,15.74
2016-07-05T04:02:28.196Z,15.73
2016-07-05T04:03:28.387Z,15.78
2016-07-05T04:04:28.207Z,15.77
2016-07-05T04:05:28.092Z,15.73
2016-07-05T04:06:28.064Z,15.7
2016-07-05T04:07:28.302Z,15.86
2016-07-05T04:08:28.102Z,15.86
2016-07-05T04:09:28.085Z,15.83
2016-07-05T04:10:28.089Z,15.86
2016-07-05T04:11:28.079Z,15.84
2016-07-05T04:12:28.056Z,15.93
2016-07-05T04:13:28.113Z,15.86
2016-07-05T04:14:28.080Z,15.99
2016-07-05T04:15:28.059Z,15.96
2016-07-05T04:16:28.258Z,15.99
2016-07-05T04:17:28.305Z,16
2016-07-05T04:18:28.308Z,15.92
2016-07-05T04:19:28.066Z,15.92
2016-07-05T04:20:28.310Z,16.02
2016-07-05T04:21:28.276Z,15.95
2016-07-05T04:22:28.168Z,15.93
2016-07-05T04:23:28.038Z,15.99
2016-07-05T04:24:28.026Z,16.07
2016-07-05T04:25:28.291Z,16.02
2016-07-05T04:26:28.017Z,16.07
2016-07-05T04:27:28.018Z,16.06
2016-07-05T04:28:28.066Z,16.07
2016-07-05T04:29:28.003Z,16.04
2016-07-05T04:30:28.393Z,16.11
2016-07-05T04:31:28.019Z,16.17
2016-07-05T04:32:27.989Z,16.17
2016-07-05T04:33:28.021Z,16.16
2016-07-05T04:34:28.196Z,16.22
2016-07-05T04:35:28.179Z,16.18
2016-07-05T04:36:27.985Z,16.29
2016-07-05T04:37:28.016Z,16.25
2016-07-05T04:38:28.004Z,16.27
2016-07-05T04:39:28.136Z,16.34
2016-07-05T04:40:27.961Z,16.45
2016-07-05T04:41:28.000Z,16.45
2016-07-05T04:42:27.956Z,16.44
2016-07-05T04:43:28.392Z,16.48
2016-07-05T04:44:27.949Z,16.59
2016-07-05T04:45:27.952Z,16.52
2016-07-05T04:46:27.947Z,16.69
2016-07-05T04:47:28.183Z,16.7
2016-07-05T04:48:27.953Z,16.69
2016-07-05T04:49:27.952Z,16.76
2016-07-05T04:50:28.258Z,16.74
2016-07-05T04:51:27.956Z,16.8
2016-07-05T04:52:28.204Z,16.85
2016-07-05T04:53:28.128Z,16.92
2016-07-05T04:54:28.168Z,16.91
2016-07-05T04:55:27.926Z,16.95
2016-07-05T04:56:27.923Z,16.94
2016-07-05T04:57:27.933Z,16.97
2016-07-05T04:58:27.931Z,17
2016-07-05T04:59:27.931Z,16.97
2016-07-05T05:00:27.932Z,17.09
2016-07-05T05:01:27.951Z,17.02
2016-07-05T05:02:27.917Z,17
2016-07-05T05:03:27.933Z,16.92
2016-07-05T05:04:27.966Z,16.91
2016-07-05T05:05:27.965Z,17.03
2016-07-05T05:06:27.932Z,17
2016-07-05T05:07:27.913Z,17
2016-07-05T05:08:27.932Z,16.94
2016-07-05T05:09:27.932Z,17.06
2016-07-05T05:10:27.932Z,17.02
2016-07-05T05:11:28.139Z,17.02
2016-07-05T05:12:28.153Z,17.1
2016-07-05T05:13:27.918Z,17.05
2016-07-05T05:14:28.135Z,17.05
2016-07-05T05:15:28.072Z,17.07
2016-07-05T05:16:27.884Z,17.03
2016-07-05T05:17:27.982Z,17.03
2016-07-05T05:18:28.082Z,17.09
2016-07-05T05:19:28.056Z,17.09
2016-07-05T05:20:27.866Z,17.05
2016-07-05T05:21:27.858Z,17.13
2016-07-05T05:22:28.025Z,17.17
2016-07-05T05:23:28.077Z,17.28
2016-07-05T05:24:28.037Z,17.46
2016-07-05T05:25:27.966Z,17.58
2016-07-05T05:26:27.861Z,17.69
2016-07-05T05:27:27.849Z,18.02
2016-07-05T05:28:27.848Z,18.23
2016-07-05T05:29:28.171Z,18.19
2016-07-05T05:30:28.030Z,18.39
2016-07-05T05:31:28.049Z,18.47
2016-07-05T05:32:27.833Z,18.56
2016-07-05T05:33:28.047Z,18.53
2016-07-05T05:34:27.854Z,18.59
2016-07-05T05:35:27.980Z,18.54
2016-07-05T05:36:27.838Z,18.53
2016-07-05T05:37:28.058Z,18.54
2016-07-05T05:38:28.120Z,18.53
2016-07-05T05:39:27.825Z,18.54
2016-07-05T05:40:28.038Z,18.57
2016-07-05T05:41:27.825Z,18.63
2016-07-05T05:42:28.018Z,18.59
2016-07-05T05:43:27.826Z,18.66
2016-07-05T05:44:27.933Z,18.65
2016-07-05T05:45:28.033Z,18.66
2016-07-05T05:46:27.845Z,18.75
2016-07-05T05:47:28.040Z,18.76
2016-07-05T05:48:28.028Z,18.76
2016-07-05T05:49:28.039Z,18.87
2016-07-05T05:50:28.142Z,18.87
2016-07-05T05:51:28.016Z,18.93
2016-07-05T05:52:28.030Z,18.97
2016-07-05T05:53:27.831Z,19.07
2016-07-05T05:54:27.827Z,19.05
2016-07-05T05:55:28.075Z,19.07
2016-07-05T05:56:27.831Z,19.17
2016-07-05T05:57:27.819Z,19.24
2016-07-05T05:58:28.067Z,19.3
2016-07-05T05:59:28.029Z,19.43
2016-07-05T06:00:27.844Z,19.42
2016-07-05T06:01:27.827Z,19.47
2016-07-05T06:02:27.827Z,19.49
2016-07-05T06:03:27.955Z,19.45
2016-07-05T06:04:28.066Z,19.47
2016-07-05T06:05:27.936Z,19.53
2016-07-05T06:06:27.824Z,19.49
2016-07-05T06:07:28.073Z,19.49
2016-07-05T06:08:28.021Z,19.5
2016-07-05T06:09:27.943Z,19.53
2016-07-05T06:10:28.006Z,19.46
2016-07-05T06:11:28.030Z,19.43
2016-07-05T06:12:28.017Z,19.49
2016-07-05T06:13:27.795Z,19.65
2016-07-05T06:14:28.073Z,19.61
2016-07-05T06:15:27.833Z,19.71
2016-07-05T06:16:28.409Z,19.63
2016-07-05T06:17:27.791Z,19.78
2016-07-05T06:18:27.912Z,19.8
2016-07-05T06:19:27.794Z,19.74
2016-07-05T06:20:27.888Z,19.79
2016-07-05T06:21:27.982Z,19.83
2016-07-05T06:22:28.067Z,19.87
2016-07-05T06:23:27.984Z,19.82
2016-07-05T06:24:27.980Z,19.97
2016-07-05T06:25:27.807Z,19.87
2016-07-05T06:26:27.791Z,19.97
2016-07-05T06:27:28.014Z,19.97
2016-07-05T06:28:28.058Z,19.83
2016-07-05T06:29:27.967Z,19.89
2016-07-05T06:30:28.001Z,19.79
2016-07-05T06:31:27.955Z,19.78
2016-07-05T06:32:27.914Z,19.68
2016-07-05T06:33:28.122Z,19.67
2016-07-05T06:34:27.981Z,19.65
2016-07-05T06:35:27.867Z,19.5
2016-07-05T06:36:27.787Z,19.49
2016-07-05T06:37:28.005Z,19.32
2016-07-05T06:38:27.969Z,19.27
2016-07-05T06:39:27.791Z,19.24
2016-07-05T06:40:28.051Z,19.17
2016-07-05T06:41:27.954Z,19.09
2016-07-05T06:42:28.057Z,19.07
2016-07-05T06:43:28.031Z,19.05
2016-07-05T06:44:27.971Z,19.06
2016-07-05T06:45:27.778Z,19.13
2016-07-05T06:46:28.401Z,19.17
2016-07-05T06:47:27.778Z,19.23
2016-07-05T06:48:27.979Z,19.23
2016-07-05T06:49:27.859Z,19.27
2016-07-05T06:50:28.045Z,19.34
2016-07-05T06:51:27.973Z,19.38
2016-07-05T06:52:28.000Z,19.6
2016-07-05T06:53:27.789Z,19.67
2016-07-05T06:54:28.027Z,19.97
2016-07-05T06:55:28.070Z,20.46
2016-07-05T06:56:28.019Z,21.33
2016-07-05T06:57:27.780Z,21.9
2016-07-05T06:58:28.011Z,22.71
2016-07-05T06:59:28.044Z,23.48
2016-07-05T07:00:28.058Z,24.21
2016-07-05T07:01:27.958Z,24.96
2016-07-05T07:02:28.003Z,25.41
2016-07-05T07:03:27.986Z,25.44
2016-07-05T07:04:27.770Z,25.12
2016-07-05T07:05:28.001Z,24.69
2016-07-05T07:06:27.783Z,24.24
2016-07-05T07:07:27.976Z,23.85
2016-07-05T07:08:28.009Z,23.4
2016-07-05T07:09:27.959Z,23.03
2016-07-05T07:10:28.013Z,22.46
2016-07-05T07:11:27.817Z,22.14
2016-07-05T07:12:27.815Z,21.82
2016-07-05T07:13:28.003Z,21.51
2016-07-05T07:14:28.011Z,21.41
2016-07-05T07:15:28.077Z,21.25
2016-07-05T07:16:27.814Z,21.16
2016-07-05T07:17:28.090Z,21.25
2016-07-05T07:18:28.083Z,21.25
2016-07-05T07:19:28.012Z,21.15
2016-07-05T07:20:28.003Z,21.19
2016-07-05T07:21:28.002Z,21.22
2016-07-05T07:22:27.808Z,21.41
2016-07-05T07:23:27.989Z,21.38
2016-07-05T07:24:27.996Z,21.34
2016-07-05T07:25:28.066Z,21.28
2016-07-05T07:26:27.806Z,21.19
2016-07-05T07:27:28.086Z,21.04
2016-07-05T07:28:28.069Z,20.96
2016-07-05T07:29:27.862Z,21
2016-07-05T07:30:28.110Z,21.01
2016-07-05T07:31:27.820Z,20.97
2016-07-05T07:32:28.006Z,21
2016-07-05T07:33:28.069Z,21.04
2016-07-05T07:34:28.011Z,20.94
2016-07-05T07:35:28.024Z,20.83
2016-07-05T07:36:27.817Z,20.74
2016-07-05T07:37:27.836Z,20.68
2016-07-05T07:38:28.030Z,20.68
2016-07-05T07:39:27.831Z,20.74
2016-07-05T07:40:28.033Z,20.93
2016-07-05T07:41:27.847Z,21.33
2016-07-05T07:42:28.063Z,22.02
2016-07-05T07:43:28.033Z,22.76
2016-07-05T07:44:28.157Z,23.48
2016-07-05T07:45:28.033Z,24.46
2016-07-05T07:46:27.851Z,25.07
2016-07-05T07:47:28.147Z,25.59
2016-07-05T07:48:28.056Z,26.04
2016-07-05T07:49:27.878Z,26.81
2016-07-05T07:50:28.737Z,27.49
2016-07-05T07:51:28.027Z,28.03
2016-07-05T07:52:28.080Z,28.67
2016-07-05T07:53:28.057Z,29.26
2016-07-05T07:54:28.287Z,29.66
2016-07-05T07:55:28.045Z,30.11
2016-07-05T07:56:27.879Z,30.37
2016-07-05T07:57:28.784Z,30.69
2016-07-05T07:58:28.083Z,31.19
2016-07-05T07:59:28.085Z,31.72
2016-07-05T08:00:28.087Z,32.05
2016-07-05T08:01:28.174Z,32.31
2016-07-05T08:02:28.188Z,32.56
2016-07-05T08:03:28.206Z,32.74
2016-07-05T08:04:27.929Z,32.68
2016-07-05T08:05:28.158Z,32.72
2016-07-05T08:06:28.162Z,32.87
2016-07-05T08:07:28.151Z,33.11
2016-07-05T08:08:27.954Z,33.37
2016-07-05T08:09:28.163Z,33.81
2016-07-05T08:10:28.167Z,34.05
2016-07-05T08:11:28.216Z,34.49
2016-07-05T08:12:27.980Z,34.67
2016-07-05T08:13:28.191Z,34.67
2016-07-05T08:14:28.265Z,34.84
2016-07-05T08:15:28.266Z,35.02
2016-07-05T08:16:28.026Z,35.11
2016-07-05T08:17:28.236Z,35.16
2016-07-05T08:18:28.015Z,34.93
2016-07-05T08:19:28.664Z,34.67
2016-07-05T08:20:28.044Z,33.89
2016-07-05T08:21:28.348Z,33.17
2016-07-05T08:22:28.404Z,32.69
2016-07-05T08:23:28.170Z,32.74
2016-07-05T08:24:43.506Z,32.47
2016-07-05T08:25:28.387Z,32.45
2016-07-05T08:26:29.333Z,32.01
2016-07-05T08:27:28.448Z,31.67
2016-07-05T08:28:28.249Z,30.86
2016-07-05T08:29:28.320Z,30.44
2016-07-05T08:30:28.359Z,30.18
2016-07-05T08:31:28.464Z,29.88
2016-07-05T08:32:28.384Z,29.5
2016-07-05T08:33:28.379Z,28.88
2016-07-05T08:34:28.391Z,28.36
2016-07-05T08:35:28.378Z,28.11
2016-07-05T08:36:28.179Z,27.89
2016-07-05T08:37:29.835Z,27.66
2016-07-05T08:38:28.431Z,27.27
2016-07-05T08:39:28.234Z,27.3
2016-07-05T08:40:28.278Z,26.87
2016-07-05T08:41:28.474Z,26.61
2016-07-05T08:42:28.481Z,26.39
2016-07-05T08:43:28.337Z,26.23
2016-07-05T08:44:28.426Z,26.12
2016-07-05T08:45:28.499Z,25.88
2016-07-05T08:46:28.251Z,25.93
2016-07-05T08:47:28.448Z,25.88
2016-07-05T08:48:28.533Z,25.88
2016-07-05T08:49:29.114Z,25.66
2016-07-05T08:50:28.499Z,25.41
2016-07-05T08:51:28.339Z,25.19
2016-07-05T08:52:28.502Z,24.97
2016-07-05T08:53:28.274Z,24.74
2016-07-05T08:54:28.443Z,24.42
2016-07-05T08:55:28.513Z,24.21
2016-07-05T08:56:28.296Z,23.81
2016-07-05T08:57:28.279Z,23.67
2016-07-05T08:58:28.368Z,23.55
2016-07-05T08:59:28.544Z,23.5
2016-07-05T09:00:28.504Z,23.45
2016-07-05T09:01:28.353Z,23.5
2016-07-05T09:02:28.288Z,23.48
2016-07-05T09:03:28.589Z,23.59
2016-07-05T09:04:28.523Z,23.77
2016-07-05T09:05:28.514Z,23.9
2016-07-05T09:06:28.281Z,24.11
2016-07-05T09:07:28.527Z,24.37
2016-07-05T09:08:28.330Z,24.46
2016-07-05T09:09:28.508Z,24.61
2016-07-05T09:10:28.494Z,24.64
2016-07-05T09:11:28.579Z,24.67
2016-07-05T09:12:28.539Z,24.7
2016-07-05T09:13:28.369Z,24.69
2016-07-05T09:14:28.761Z,24.86
2016-07-05T09:15:28.555Z,24.78
2016-07-05T09:16:28.399Z,24.7
2016-07-05T09:17:28.720Z,24.66
2016-07-05T09:18:28.539Z,24.69
2016-07-05T09:19:28.334Z,24.7
2016-07-05T09:20:28.476Z,24.59
2016-07-05T09:21:28.382Z,24.46
2016-07-05T09:22:28.402Z,24.24
2016-07-05T09:23:30.942Z,24.17
2016-07-05T09:24:28.793Z,24.11
2016-07-05T09:25:28.633Z,24.03
2016-07-05T09:26:28.477Z,23.99
2016-07-05T09:27:28.618Z,24.14
2016-07-05T09:28:28.552Z,24.33
2016-07-05T09:29:30.088Z,24.46
2016-07-05T09:30:28.598Z,24.59
2016-07-05T09:31:28.553Z,24.61
2016-07-05T09:32:28.394Z,24.59
2016-07-05T09:33:28.385Z,24.52
2016-07-05T09:34:28.571Z,24.54
2016-07-05T09:35:28.775Z,24.39
2016-07-05T09:36:28.388Z,24.37
2016-07-05T09:37:28.574Z,24.46
2016-07-05T09:38:28.888Z,24.71
2016-07-05T09:39:28.581Z,24.78
2016-07-05T09:40:28.415Z,24.82
2016-07-05T09:41:28.630Z,25
2016-07-05T09:42:28.406Z,25.07
2016-07-05T09:43:28.601Z,25.17
2016-07-05T09:44:28.725Z,25.14
2016-07-05T09:45:28.695Z,25.19
2016-07-05T09:46:28.407Z,25.24
2016-07-05T09:47:28.705Z,25.22
2016-07-05T09:48:28.705Z,25.23
2016-07-05T09:49:28.598Z,25.2
2016-07-05T09:50:28.743Z,25.12
2016-07-05T09:51:28.596Z,25.07
2016-07-05T09:52:28.439Z,24.86
2016-07-05T09:53:28.449Z,24.56
2016-07-05T09:54:28.629Z,24.19
2016-07-05T09:55:28.696Z,23.89
2016-07-05T09:56:28.456Z,23.78
2016-07-05T09:57:28.635Z,23.78
2016-07-05T09:58:28.716Z,23.9
2016-07-05T09:59:28.667Z,23.89
2016-07-05T10:00:28.669Z,23.85
2016-07-05T10:01:28.665Z,23.75
2016-07-05T10:02:28.689Z,23.53
2016-07-05T10:03:28.742Z,23.45
2016-07-05T10:04:28.685Z,23.37
2016-07-05T10:05:28.734Z,23.18
2016-07-05T10:06:28.477Z,23.09
2016-07-05T10:07:28.680Z,23.01
2016-07-05T10:08:28.726Z,23.03
2016-07-05T10:09:28.763Z,22.94
2016-07-05T10:10:28.757Z,22.84
2016-07-05T10:11:28.702Z,22.85
2016-07-05T10:12:28.670Z,23
2016-07-05T10:13:28.702Z,23.01
2016-07-05T10:14:28.758Z,23.16
2016-07-05T10:15:28.719Z,23.01
2016-07-05T10:16:28.490Z,22.78
2016-07-05T10:17:28.683Z,22.57
2016-07-05T10:18:28.637Z,22.64
2016-07-05T10:19:28.714Z,22.76
2016-07-05T10:20:28.716Z,22.91
2016-07-05T10:21:28.696Z,23.04
2016-07-05T10:22:28.866Z,22.97
2016-07-05T10:23:28.526Z,23.06
2016-07-05T10:24:28.703Z,23.26
2016-07-05T10:25:28.525Z,23.4
2016-07-05T10:26:28.569Z,23.5
2016-07-05T10:27:28.777Z,23.47
2016-07-05T10:28:28.505Z,23.24
2016-07-05T10:29:28.747Z,23.12
2016-07-05T10:30:28.522Z,22.96
2016-07-05T10:31:29.241Z,22.91
2016-07-05T10:32:28.734Z,22.76
2016-07-05T10:33:28.584Z,22.48
2016-07-05T10:34:29.532Z,22.48
2016-07-05T10:35:28.721Z,22.41
2016-07-05T10:36:28.541Z,22.48
2016-07-05T10:37:28.543Z,22.42
2016-07-05T10:38:28.747Z,22.55
2016-07-05T10:39:28.543Z,22.75
2016-07-05T10:40:28.735Z,22.76
2016-07-05T10:41:28.833Z,22.81
2016-07-05T10:42:28.831Z,22.86
2016-07-05T10:43:28.555Z,22.99
2016-07-05T10:44:28.574Z,23.1
2016-07-05T10:45:28.752Z,23.21
2016-07-05T10:46:28.561Z,23.25
2016-07-05T10:47:28.768Z,23.4
2016-07-05T10:48:28.738Z,23.53
2016-07-05T10:49:28.770Z,23.72
2016-07-05T10:50:28.859Z,24.17
2016-07-05T10:51:28.874Z,24.14
2016-07-05T10:52:28.885Z,24.24
2016-07-05T10:53:28.843Z,24.17
2016-07-05T10:54:28.826Z,24.17
2016-07-05T10:55:28.778Z,23.97
2016-07-05T10:56:28.595Z,23.81
2016-07-05T10:57:28.591Z,23.7
2016-07-05T10:58:28.587Z,23.53
2016-07-05T10:59:28.798Z,23.42
2016-07-05T11:00:28.834Z,23.24
2016-07-05T11:01:28.597Z,23.14
2016-07-05T11:02:28.813Z,23.01
2016-07-05T11:03:28.821Z,22.96
2016-07-05T11:04:28.617Z,22.96
2016-07-05T11:05:28.596Z,22.99
2016-07-05T11:06:28.604Z,22.96
2016-07-05T11:07:28.783Z,23.14
2016-07-05T11:08:28.886Z,22.96
2016-07-05T11:09:28.881Z,22.99
2016-07-05T11:10:28.826Z,22.94
2016-07-05T11:11:28.807Z,22.91
2016-07-05T11:12:28.794Z,22.92
2016-07-05T11:13:28.863Z,22.96
2016-07-05T11:14:28.837Z,23.06
2016-07-05T11:15:28.825Z,22.99
2016-07-05T11:16:28.630Z,23
2016-07-05T11:17:28.836Z,23.1
2016-07-05T11:18:28.834Z,23.07
2016-07-05T11:19:29.419Z,23.1
2016-07-05T11:20:28.823Z,23.21
2016-07-05T11:21:28.841Z,23.24
2016-07-05T11:22:28.842Z,23.34
2016-07-05T11:23:28.818Z,23.44
2016-07-05T11:24:28.831Z,23.48
2016-07-05T11:25:28.897Z,23.4
2016-07-05T11:26:28.652Z,23.4
2016-07-05T11:27:28.950Z,23.47
2016-07-05T11:28:28.749Z,23.47
2016-07-05T11:29:28.838Z,23.6
2016-07-05T11:30:28.948Z,23.64
2016-07-05T11:31:28.962Z,23.79
2016-07-05T11:32:28.878Z,23.92
2016-07-05T11:33:28.779Z,23.89
2016-07-05T11:34:28.668Z,23.94
2016-07-05T11:35:28.861Z,24.04
2016-07-05T11:36:28.660Z,24.18
2016-07-05T11:37:28.876Z,24.24
2016-07-05T11:38:28.860Z,24.26
2016-07-05T11:39:28.667Z,24.26
2016-07-05T11:40:28.926Z,24.39
2016-07-05T11:41:28.939Z,24.39
2016-07-05T11:42:28.889Z,24.42
2016-07-05T11:43:28.887Z,24.32
2016-07-05T11:44:28.893Z,24.4
2016-07-05T11:45:28.906Z,24.34
2016-07-05T11:46:28.711Z,24.19
2016-07-05T11:47:28.907Z,23.97
2016-07-05T11:48:28.851Z,23.82
2016-07-05T11:49:28.996Z,23.72
2016-07-05T11:50:28.948Z,23.67
2016-07-05T11:51:28.896Z,23.62
2016-07-05T11:52:28.987Z,23.63
2016-07-05T11:53:28.916Z,23.66
2016-07-05T11:54:28.913Z,23.62
2016-07-05T11:55:29.659Z,23.57
2016-07-05T11:56:28.720Z,23.53
2016-07-05T11:57:28.991Z,23.48
2016-07-05T11:58:28.915Z,23.41
2016-07-05T11:59:28.960Z,23.42
2016-07-05T12:00:28.809Z,23.32
2016-07-05T12:01:28.937Z,23.37
2016-07-05T12:02:28.753Z,23.4
2016-07-05T12:03:29.032Z,23.21
2016-07-05T12:04:28.994Z,23.26
2016-07-05T12:05:28.844Z,23.38
2016-07-05T12:06:28.895Z,23.44
2016-07-05T12:07:28.963Z,23.45
2016-07-05T12:08:28.959Z,23.48
2016-07-05T12:09:28.969Z,23.44
2016-07-05T12:10:29.024Z,23.4
2016-07-05T12:11:29.039Z,23.45
2016-07-05T12:12:28.769Z,23.45
2016-07-05T12:13:28.979Z,23.38
2016-07-05T12:14:28.860Z,23.52
2016-07-05T12:15:28.870Z,23.52
2016-07-05T12:16:28.775Z,23.66
2016-07-05T12:17:28.857Z,23.71
2016-07-05T12:18:28.868Z,23.89
2016-07-05T12:19:28.779Z,24.04
2016-07-05T12:20:28.965Z,24.22
2016-07-05T12:21:28.782Z,24.33
2016-07-05T12:22:29.436Z,24.49
2016-07-05T12:23:28.984Z,24.58
2016-07-05T12:24:28.824Z,24.7
2016-07-05T12:25:28.824Z,24.75
2016-07-05T12:26:28.797Z,24.83
2016-07-05T12:27:29.008Z,24.97
2016-07-05T12:28:28.981Z,25.01
2016-07-05T12:29:29.016Z,25.04
2016-07-05T12:30:29.013Z,24.96
2016-07-05T12:31:29.002Z,24.97
2016-07-05T12:32:29.009Z,24.92
2016-07-05T12:33:29.037Z,24.82
2016-07-05T12:34:28.998Z,24.7
2016-07-05T12:35:28.820Z,24.58
2016-07-05T12:36:28.822Z,24.36
2016-07-05T12:37:28.823Z,24.32
2016-07-05T12:38:29.122Z,24.19
2016-07-05T12:39:28.845Z,24.15
2016-07-05T12:40:29.088Z,24.12
2016-07-05T12:41:29.097Z,24.15
2016-07-05T12:42:29.039Z,23.99
2016-07-05T12:43:29.079Z,24.03
2016-07-05T12:44:29.138Z,24.03
2016-07-05T12:45:29.040Z,24.14
2016-07-05T12:46:28.869Z,24.19
2016-07-05T12:47:29.160Z,24.21
2016-07-05T12:48:29.149Z,24.32
2016-07-05T12:49:29.066Z,24.32
2016-07-05T12:50:29.138Z,24.21
2016-07-05T12:51:29.064Z,24.15
2016-07-05T12:52:28.889Z,24
2016-07-05T12:53:29.078Z,23.82
2016-07-05T12:54:29.163Z,23.75
2016-07-05T12:55:29.179Z,23.66
2016-07-05T12:56:28.919Z,23.59